Virgil East

*Note: All times are displayed in the local standard time of the station location.
**Rain - Equipment is designed to accurately record liquid precipitation; under conditions when precipitation is not in liquid form, the data displayed may not properly reflect rainfall values.

Date Max Temp
(°C)
Min Temp
(°C)
Avg Temp
(°C)
Rain (mm) Avg RH (%)
Sun, Dec 10, 2017 -0.8 -2.4 -1.6 0.0 88.5
Sat, Dec 09, 2017 1.4 -3.8 -0.7 0.0 81.5
Fri, Dec 08, 2017 0.4 -4.7 -1.6 0.0 80.7
Thu, Dec 07, 2017 1.5 -3.3 -0.5 0.0 81.1
Wed, Dec 06, 2017 4.2 -0.7 1.7 0.0 71.8
Tue, Dec 05, 2017 11.6 0.9 7.9 5.0 87.3
Mon, Dec 04, 2017 11.6 -3.9 5.3 0.2 83.6
DateTime Avg Temp (°C) Rain (mm) RH (%)
Mon, Dec 11, 2017 02:00 -2.1 0.0 99.3
Mon, Dec 11, 2017 01:00 -1.5 0.0 96.0
Mon, Dec 11, 2017 00:00 -1.9 0.0 93.5
Sun, Dec 10, 2017 23:00 -2.0 0.0 91.8
Sun, Dec 10, 2017 22:00 -1.9 0.0 91.3
Sun, Dec 10, 2017 21:00 -1.8 0.0 88.5
Sun, Dec 10, 2017 20:00 -1.7 0.0 86.0
Sun, Dec 10, 2017 19:00 -1.5 0.0 81.3
Sun, Dec 10, 2017 18:00 -1.3 0.0 79.5
Sun, Dec 10, 2017 17:00 -1.3 0.0 85.0
Sun, Dec 10, 2017 16:00 -1.2 0.0 85.3
Sun, Dec 10, 2017 15:00 -1.1 0.0 85.5
Sun, Dec 10, 2017 14:00 -1.1 0.0 84.5
Sun, Dec 10, 2017 13:00 -1.2 0.0 85.3
Sun, Dec 10, 2017 12:00 -1.2 0.0 80.5
Sun, Dec 10, 2017 11:00 -1.8 0.0 80.8
Sun, Dec 10, 2017 10:00 -2.1 0.0 82.8
Sun, Dec 10, 2017 09:00 -2.4 0.0 81.3
Sun, Dec 10, 2017 08:00 -2.1 0.0 85.3
Sun, Dec 10, 2017 07:00 -1.6 0.0 92.3
Sun, Dec 10, 2017 06:00 -1.1 0.0 89.3
Sun, Dec 10, 2017 05:00 -1.2 0.0 94.8
Sun, Dec 10, 2017 04:00 -1.8 0.0 100.0
Sun, Dec 10, 2017 03:00 -2.0 0.0 100.0
Sun, Dec 10, 2017 02:00 -1.9 0.0 100.0
Sun, Dec 10, 2017 01:00 -2.1 0.0 100.0
Sun, Dec 10, 2017 00:00 -3.3 0.0 100.0
Sat, Dec 09, 2017 23:00 -3.3 0.0 100.0
Sat, Dec 09, 2017 22:00 -2.4 0.0 99.5
Sat, Dec 09, 2017 21:00 -1.1 0.0 90.3
Sat, Dec 09, 2017 20:00 -0.5 0.0 84.8
Sat, Dec 09, 2017 19:00 -1.7 0.0 88.8
Sat, Dec 09, 2017 18:00 -1.4 0.0 87.8
Sat, Dec 09, 2017 17:00 -0.3 0.0 75.5
Sat, Dec 09, 2017 16:00 0.7 0.0 69.5
Sat, Dec 09, 2017 15:00 0.9 0.0 66.8
Sat, Dec 09, 2017 14:00 1.1 0.0 67.5
Sat, Dec 09, 2017 13:00 0.8 0.0 70.0
Sat, Dec 09, 2017 12:00 0.9 0.0 69.3
Sat, Dec 09, 2017 11:00 0.2 0.0 75.3
Sat, Dec 09, 2017 10:00 -0.8 0.0 82.0
Sat, Dec 09, 2017 09:00 -1.8 0.0 88.0
Sat, Dec 09, 2017 08:00 -1.7 0.0 90.5
Sat, Dec 09, 2017 07:00 -0.6 0.0 90.8
Sat, Dec 09, 2017 06:00 -0.6 0.0 89.8
Sat, Dec 09, 2017 05:00 -0.5 0.0 79.8
Sat, Dec 09, 2017 04:00 -0.4 0.0 72.0
Sat, Dec 09, 2017 03:00 -0.5 0.0 72.0


asterix Register now to access more data! asterix